Time;durP1;ratioP1;P1;durP2;ratioP2;P2;SDS_P1;SDS_P2;PMS_P1;PMS_P2;Temp;Humidity;BMP_temperature;BMP_pressure;BME280_temperature;BME280_humidity;BME280_pressure;Samples;Min_cycle;Max_cycle;Signal;HPM_P1;HPM_P2
2023/01/20 00:02:12;;;;;;;20.83;10.40;;;2.00;99.90;;;;;;5073801;28;20033;-81
2023/01/20 00:04:38;;;;;;;36.43;12.73;;;2.00;99.90;;;;;;5056955;28;20039;-81
2023/01/20 00:07:04;;;;;;;33.43;15.13;;;2.00;99.90;;;;;;5073340;28;20028;-81
2023/01/20 00:09:29;;;;;;;34.43;14.60;;;2.00;99.90;;;;;;5057051;28;20534;-81
2023/01/20 00:11:55;;;;;;;29.50;14.70;;;2.10;99.90;;;;;;5073504;28;20040;-81
2023/01/20 00:14:20;;;;;;;27.37;14.77;;;2.00;99.90;;;;;;5073688;28;20071;-81
2023/01/20 00:16:46;;;;;;;31.07;15.23;;;2.00;99.90;;;;;;5040437;28;20112;-81
2023/01/20 00:19:13;;;;;;;31.90;16.53;;;2.00;99.90;;;;;;5056744;28;20032;-82
2023/01/20 00:21:39;;;;;;;33.73;16.50;;;2.00;99.90;;;;;;5073069;28;20051;-81
2023/01/20 00:24:05;;;;;;;35.00;17.13;;;2.00;99.90;;;;;;5056340;28;20032;-81
2023/01/20 00:26:31;;;;;;;36.97;18.07;;;2.10;99.90;;;;;;5056309;28;20035;-81
2023/01/20 00:28:57;;;;;;;39.37;17.73;;;2.10;99.90;;;;;;5056643;28;20060;-81
2023/01/20 00:31:28;;;;;;;42.80;22.30;;;2.10;99.90;;;;;;5074695;28;20031;-81
2023/01/20 00:33:55;;;;;;;43.10;22.47;;;2.20;99.90;;;;;;5074330;28;20479;-81
2023/01/20 00:36:23;;;;;;;45.30;23.73;;;2.10;99.90;;;;;;5056610;28;20082;-81
2023/01/20 00:38:49;;;;;;;48.40;23.40;;;2.10;99.90;;;;;;5072898;28;20028;-82
2023/01/20 00:41:15;;;;;;;46.47;24.20;;;2.10;99.90;;;;;;5056448;28;20098;-82
2023/01/20 00:43:41;;;;;;;48.67;24.73;;;2.10;99.90;;;;;;5056053;28;20033;-83
2023/01/20 00:46:07;;;;;;;44.37;24.03;;;2.00;99.90;;;;;;5072852;28;20078;-82
2023/01/20 00:48:34;;;;;;;47.57;24.07;;;2.10;99.90;;;;;;5072634;28;20021;-82
2023/01/20 00:51:00;;;;;;;44.60;23.13;;;2.10;99.90;;;;;;5072934;28;20036;-83
2023/01/20 00:53:25;;;;;;;47.70;24.97;;;2.20;99.90;;;;;;5074146;28;20025;-82
2023/01/20 00:55:51;;;;;;;49.27;25.23;;;2.20;99.90;;;;;;5056881;28;20039;-83
2023/01/20 00:58:17;;;;;;;52.53;25.60;;;2.20;99.90;;;;;;5074122;28;20095;-83
2023/01/20 01:00:45;;;;;;;48.97;25.30;;;2.20;99.90;;;;;;5058082;28;20388;-82
2023/01/20 01:03:11;;;;;;;45.37;23.83;;;2.20;99.90;;;;;;5076203;28;20461;-82
2023/01/20 01:05:36;;;;;;;47.37;25.30;;;2.20;99.90;;;;;;5061313;28;20518;-82
2023/01/20 01:08:02;;;;;;;46.53;25.23;;;2.10;99.90;;;;;;5060321;28;20067;-83
2023/01/20 01:10:28;;;;;;;49.90;24.80;;;2.20;99.90;;;;;;5076677;28;20099;-82
2023/01/20 01:12:54;;;;;;;48.30;24.00;;;2.20;99.90;;;;;;5046957;28;20059;-82
2023/01/20 01:15:19;;;;;;;49.23;23.43;;;2.20;99.90;;;;;;5038051;28;20171;-81
2023/01/20 01:17:45;;;;;;;47.00;23.20;;;2.20;99.90;;;;;;5052594;28;20536;-82
2023/01/20 01:20:12;;;;;;;43.67;22.40;;;2.20;99.90;;;;;;5020147;28;20037;-82
2023/01/20 01:22:38;;;;;;;44.87;23.47;;;2.10;99.90;;;;;;5052634;28;20124;-82
2023/01/20 01:25:05;;;;;;;38.93;21.37;;;2.10;99.90;;;;;;5053843;28;20025;-81
2023/01/20 01:27:30;;;;;;;43.53;22.73;;;2.10;99.90;;;;;;5052447;28;20028;-81
2023/01/20 01:29:56;;;;;;;40.67;20.47;;;2.10;99.90;;;;;;5053858;28;20032;-81
2023/01/20 01:32:22;;;;;;;36.77;19.57;;;2.20;99.90;;;;;;5051808;28;20074;-82
2023/01/20 01:34:48;;;;;;;40.33;20.93;;;2.20;99.90;;;;;;5051958;28;20127;-82
2023/01/20 01:37:14;;;;;;;34.80;19.30;;;2.20;99.90;;;;;;5052333;28;20056;-82
2023/01/20 01:39:39;;;;;;;36.33;18.97;;;2.20;99.90;;;;;;5051801;28;20424;-82
2023/01/20 01:42:25;;;;;;;40.93;20.00;;;2.20;99.90;;;;;;5051636;28;20084;-82
2023/01/20 01:45:09;;;;;;;40.10;21.03;;;2.20;99.90;;;;;;5035549;28;20063;-82
2023/01/20 01:47:49;;;;;;;39.60;20.80;;;2.20;99.90;;;;;;5053212;28;20511;-81
2023/01/20 01:50:26;;;;;;;38.57;21.07;;;2.20;99.90;;;;;;5052138;28;20369;-82
2023/01/20 01:52:54;;;;;;;41.63;20.70;;;2.20;99.90;;;;;;5051989;28;20036;-82
2023/01/20 01:55:24;;;;;;;34.60;18.77;;;2.00;99.90;;;;;;5051496;28;20028;-82
2023/01/20 01:57:50;;;;;;;42.23;21.03;;;2.20;99.90;;;;;;5053250;28;20033;-83
2023/01/20 02:00:16;;;;;;;41.97;20.80;;;2.10;99.90;;;;;;5035258;28;20037;-83
2023/01/20 02:02:44;;;;;;;38.87;21.73;;;2.10;99.90;;;;;;5034971;28;20075;-82
2023/01/20 02:05:12;;;;;;;40.37;19.60;;;2.20;99.90;;;;;;5051403;28;20029;-83
2023/01/20 02:07:38;;;;;;;36.43;18.93;;;2.20;99.90;;;;;;5051758;28;20025;-83
2023/01/20 02:10:04;;;;;;;36.50;19.27;;;2.20;99.90;;;;;;5035515;28;20037;-83
2023/01/20 02:12:30;;;;;;;38.53;17.83;;;2.20;99.90;;;;;;5035504;28;20036;-83
2023/01/20 02:14:58;;;;;;;36.67;19.37;;;2.20;99.90;;;;;;5035327;28;20029;-83
2023/01/20 02:17:29;;;;;;;38.30;18.17;;;2.30;99.90;;;;;;5035449;28;20025;-83
2023/01/20 02:20:21;;;;;;;39.43;19.23;;;2.20;99.90;;;;;;5051436;28;20044;-83
2023/01/20 02:23:09;;;;;;;37.10;18.90;;;2.20;99.90;;;;;;5011013;28;20033;-82
2023/01/20 02:26:04;;;;;;;32.03;16.77;;;2.20;99.90;;;;;;5051715;28;20112;-82
2023/01/20 02:29:01;;;;;;;31.70;16.23;;;2.20;99.90;;;;;;5051447;28;20028;-82
2023/01/20 02:32:12;;;;;;;35.87;17.13;;;2.20;99.90;;;;;;5051870;28;20489;-82
2023/01/20 02:34:48;;;;;;;31.80;17.43;;;2.20;99.90;;;;;;5031596;28;20029;-82
2023/01/20 02:37:28;;;;;;;34.67;17.17;;;2.30;99.90;;;;;;5051416;28;20530;-82
2023/01/20 02:40:07;;;;;;;33.93;17.67;;;2.20;99.90;;;;;;5052468;28;20037;-82
2023/01/20 02:42:41;;;;;;;35.50;18.07;;;2.30;99.90;;;;;;5050825;28;20420;-83
2023/01/20 02:45:30;;;;;;;36.77;17.93;;;2.30;99.90;;;;;;5052194;28;20159;-82
2023/01/20 02:48:10;;;;;;;36.33;18.63;;;2.30;99.90;;;;;;5051566;28;20021;-82
2023/01/20 02:51:11;;;;;;;37.30;18.23;;;2.20;99.90;;;;;;5051532;28;20025;-82
2023/01/20 02:53:48;;;;;;;37.90;18.77;;;2.20;99.90;;;;;;5054921;28;20078;-82
2023/01/20 02:56:15;;;;;;;41.13;19.97;;;2.20;99.90;;;;;;5056525;28;20116;-83
2023/01/20 02:58:59;;;;;;;38.43;20.23;;;2.20;99.90;;;;;;5058950;28;20041;-82
2023/01/20 03:01:36;;;;;;;41.80;21.65;;;2.20;99.90;;;;;;5070391;28;20032;-82
2023/01/20 03:04:05;;;;;;;44.80;23.37;;;2.20;99.90;;;;;;5067044;28;20025;-82
2023/01/20 03:06:37;;;;;;;45.00;22.57;;;2.20;99.90;;;;;;5056023;28;20022;-82
2023/01/20 03:09:08;;;;;;;48.67;24.07;;;2.20;99.90;;;;;;5055245;28;20074;-82
2023/01/20 03:11:40;;;;;;;42.70;21.60;;;2.20;99.90;;;;;;5055609;28;20024;-82
2023/01/20 03:14:10;;;;;;;47.60;23.30;;;2.20;99.90;;;;;;5054962;28;20024;-81
2023/01/20 03:16:36;;;;;;;49.07;23.10;;;2.20;99.90;;;;;;5054732;28;20025;-82
2023/01/20 03:19:02;;;;;;;44.23;21.90;;;2.20;99.90;;;;;;5038131;28;20041;-82
2023/01/20 03:21:28;;;;;;;46.07;22.90;;;2.20;99.90;;;;;;5054693;28;20045;-81
2023/01/20 03:23:59;;;;;;;48.27;22.90;;;2.20;99.90;;;;;;5037859;28;20106;-82
2023/01/20 03:26:25;;;;;;;47.90;24.10;;;2.20;99.90;;;;;;5054559;28;20052;-82
2023/01/20 03:28:51;;;;;;;51.93;24.50;;;2.20;99.90;;;;;;5055956;28;20420;-83
2023/01/20 03:31:38;;;;;;;56.83;25.60;;;2.30;99.90;;;;;;5054486;28;20032;-81
2023/01/20 03:34:11;;;;;;;50.87;26.33;;;2.30;99.90;;;;;;5053891;28;20057;-83
2023/01/20 03:36:39;;;;;;;60.47;28.40;;;2.20;99.90;;;;;;5055510;28;20032;-83
2023/01/20 03:39:05;;;;;;;50.33;25.40;;;2.20;99.90;;;;;;5054407;28;20503;-83
2023/01/20 03:41:39;;;;;;;52.90;25.40;;;2.20;99.90;;;;;;5053939;28;20048;-82
2023/01/20 03:44:36;;;;;;;54.97;25.73;;;2.20;99.90;;;;;;5054505;28;20535;-83
2023/01/20 03:47:25;;;;;;;57.77;26.97;;;2.20;99.90;;;;;;5054110;28;20025;-82
2023/01/20 03:50:34;;;;;;;62.47;29.60;;;2.10;99.90;;;;;;5053483;28;20033;-83
2023/01/20 03:53:08;;;;;;;57.17;26.33;;;2.20;99.90;;;;;;5054282;28;20068;-83
2023/01/20 03:55:56;;;;;;;62.20;28.07;;;2.20;99.90;;;;;;5055081;28;20389;-83
2023/01/20 03:58:28;;;;;;;56.00;25.80;;;2.10;99.90;;;;;;5053946;28;20396;-83
2023/01/20 04:00:56;;;;;;;57.10;24.80;;;2.10;99.90;;;;;;5053712;28;20021;-83
2023/01/20 04:03:31;;;;;;;66.17;27.43;;;2.10;99.90;;;;;;5053513;28;20118;-82
2023/01/20 04:06:03;;;;;;;57.40;27.07;;;2.10;99.90;;;;;;5052929;28;20121;-82
2023/01/20 04:08:36;;;;;;;62.27;27.13;;;2.10;99.90;;;;;;5053818;28;20025;-82
2023/01/20 04:11:06;;;;;;;59.77;27.33;;;2.10;99.90;;;;;;5054874;28;20029;-82
2023/01/20 04:13:33;;;;;;;63.73;26.53;;;2.10;99.90;;;;;;5053647;28;20074;-82
2023/01/20 04:16:00;;;;;;;59.37;27.70;;;2.10;99.90;;;;;;5055228;28;20095;-82
2023/01/20 04:18:26;;;;;;;59.93;26.43;;;2.10;99.90;;;;;;5053071;28;20025;-82
2023/01/20 04:20:57;;;;;;;61.77;26.87;;;2.10;99.90;;;;;;5054707;28;20085;-82
2023/01/20 04:23:38;;;;;;;67.50;26.83;;;2.10;99.90;;;;;;5054551;28;20029;-82
2023/01/20 04:26:04;;;;;;;64.67;28.07;;;2.10;99.90;;;;;;5053384;28;20400;-82
2023/01/20 04:28:31;;;;;;;59.77;26.27;;;2.10;99.90;;;;;;5053251;28;20032;-82
2023/01/20 04:30:56;;;;;;;53.47;24.30;;;2.10;99.90;;;;;;5054370;28;20021;-82
2023/01/20 04:33:22;;;;;;;63.17;28.60;;;2.10;99.90;;;;;;5037143;28;20485;-83
2023/01/20 04:35:47;;;;;;;65.33;27.10;;;2.10;99.90;;;;;;5036066;28;20035;-82
2023/01/20 04:38:13;;;;;;;60.63;28.00;;;2.30;99.90;;;;;;5053158;28;20499;-82
2023/01/20 04:40:39;;;;;;;65.43;28.83;;;2.20;99.90;;;;;;5053052;28;20234;-83
2023/01/20 04:43:05;;;;;;;69.10;28.30;;;2.20;99.90;;;;;;5052706;28;20103;-82
2023/01/20 04:45:30;;;;;;;69.13;29.60;;;2.10;99.90;;;;;;5053392;28;20064;-81
2023/01/20 04:47:56;;;;;;;66.30;28.17;;;2.00;99.90;;;;;;5036516;28;20222;-82
2023/01/20 04:50:21;;;;;;;64.23;26.87;;;2.10;99.90;;;;;;5053837;28;20068;-82
2023/01/20 04:52:47;;;;;;;64.33;26.77;;;2.10;99.90;;;;;;5053210;28;20036;-82
2023/01/20 04:55:13;;;;;;;59.77;27.50;;;2.20;99.90;;;;;;5054461;28;20048;-82
2023/01/20 04:57:38;;;;;;;61.40;26.03;;;2.10;99.90;;;;;;5020095;28;20393;-82
2023/01/20 05:00:06;;;;;;;58.97;26.27;;;2.10;99.90;;;;;;5035861;28;20036;-82
2023/01/20 05:02:31;;;;;;;59.00;25.73;;;2.10;99.90;;;;;;5053067;28;20025;-83
2023/01/20 05:04:57;;;;;;;59.17;26.23;;;2.10;99.90;;;;;;5036527;28;20051;-82
2023/01/20 05:07:23;;;;;;;54.70;25.17;;;2.10;99.90;;;;;;5026971;28;20032;-82
2023/01/20 05:09:48;;;;;;;61.60;26.30;;;2.00;99.90;;;;;;5067223;28;20029;-82
2023/01/20 05:12:14;;;;;;;50.70;23.30;;;2.10;99.90;;;;;;5064210;28;20032;-81
2023/01/20 05:14:40;;;;;;;56.17;23.63;;;2.10;99.90;;;;;;5054259;28;20024;-83
2023/01/20 05:17:05;;;;;;;50.87;22.43;;;2.10;99.90;;;;;;5035590;28;20052;-82
2023/01/20 05:19:31;;;;;;;56.07;22.13;;;2.00;99.90;;;;;;5052963;28;20120;-83
2023/01/20 05:21:58;;;;;;;53.30;23.30;;;2.10;99.90;;;;;;5052843;28;20471;-83
2023/01/20 05:24:24;;;;;;;53.17;24.03;;;2.10;99.90;;;;;;5052476;28;20029;-83
2023/01/20 05:26:49;;;;;;;54.47;23.53;;;2.10;99.90;;;;;;5035796;28;20434;-83
2023/01/20 05:29:15;;;;;;;57.03;23.47;;;2.10;99.90;;;;;;5019015;28;20029;-83
2023/01/20 05:31:42;;;;;;;61.20;25.20;;;2.20;99.90;;;;;;5052551;28;20033;-82
2023/01/20 05:34:08;;;;;;;61.10;25.10;;;2.10;99.90;;;;;;5052293;28;20035;-83
2023/01/20 05:36:34;;;;;;;58.67;24.53;;;2.10;99.90;;;;;;5051701;28;20033;-83
2023/01/20 05:38:59;;;;;;;54.87;25.73;;;2.10;99.90;;;;;;5035157;28;20055;-82
2023/01/20 05:41:25;;;;;;;55.10;24.80;;;2.10;99.90;;;;;;5035172;28;20029;-82
2023/01/20 05:43:54;;;;;;;51.43;22.10;;;2.00;99.90;;;;;;5035516;28;20128;-83
2023/01/20 05:46:20;;;;;;;49.70;21.60;;;2.00;99.90;;;;;;5035368;28;20412;-82
2023/01/20 05:48:46;;;;;;;51.63;21.77;;;2.00;99.90;;;;;;5035126;28;20033;-82
2023/01/20 05:51:11;;;;;;;50.60;22.40;;;2.00;99.90;;;;;;5035728;28;20469;-83
2023/01/20 05:53:37;;;;;;;55.20;23.07;;;2.00;99.90;;;;;;5051779;28;20029;-82
2023/01/20 05:56:04;;;;;;;50.57;22.23;;;1.90;99.90;;;;;;5051792;28;20036;-82
2023/01/20 05:58:31;;;;;;;51.47;22.27;;;2.00;99.90;;;;;;5051711;28;20029;-82
2023/01/20 06:01:11;;;;;;;49.17;20.70;;;2.00;99.90;;;;;;5052658;28;20108;-82
2023/01/20 06:03:37;;;;;;;42.93;19.37;;;2.00;99.90;;;;;;5053297;28;20025;-82
2023/01/20 06:06:06;;;;;;;43.73;20.77;;;1.90;99.90;;;;;;5051433;28;20075;-82
2023/01/20 06:08:31;;;;;;;49.50;21.43;;;2.00;99.90;;;;;;5051761;28;20025;-82
2023/01/20 06:10:57;;;;;;;48.37;20.83;;;2.00;99.90;;;;;;5051929;28;20013;-82
2023/01/20 06:13:23;;;;;;;48.27;20.87;;;2.10;99.90;;;;;;5018810;28;20381;-82
2023/01/20 06:15:52;;;;;;;48.03;21.27;;;2.00;99.90;;;;;;5067851;28;20021;-82
2023/01/20 06:18:22;;;;;;;50.70;21.00;;;1.90;99.90;;;;;;5070200;28;20029;-82
2023/01/20 06:20:47;;;;;;;49.13;22.27;;;2.00;99.90;;;;;;5072158;28;20048;-82
2023/01/20 06:23:13;;;;;;;49.70;22.07;;;1.90;99.90;;;;;;5072115;28;20036;-81
2023/01/20 06:25:40;;;;;;;48.87;22.57;;;2.00;99.90;;;;;;5053673;28;20052;-83
2023/01/20 06:28:06;;;;;;;49.17;22.10;;;2.00;99.90;;;;;;5056809;28;20025;-82
2023/01/20 06:30:32;;;;;;;48.83;20.57;;;2.00;99.90;;;;;;5075361;28;20048;-83
2023/01/20 06:32:58;;;;;;;46.83;20.30;;;2.00;99.90;;;;;;5075540;28;20024;-83
2023/01/20 06:35:24;;;;;;;51.07;23.97;;;2.00;99.90;;;;;;5075272;28;20029;-82
2023/01/20 06:37:49;;;;;;;50.13;22.33;;;1.90;99.90;;;;;;5058426;28;20396;-81
2023/01/20 06:40:15;;;;;;;49.67;19.77;;;2.00;99.90;;;;;;5058507;28;20082;-82
2023/01/20 06:42:41;;;;;;;50.93;20.53;;;2.00;99.90;;;;;;5075026;28;20473;-82
2023/01/20 06:45:07;;;;;;;48.07;20.93;;;2.00;99.90;;;;;;5068459;28;20086;-82
2023/01/20 06:47:33;;;;;;;47.60;19.90;;;2.00;99.90;;;;;;5056212;28;20469;-82
2023/01/20 06:49:59;;;;;;;51.77;22.10;;;2.00;99.90;;;;;;5048481;28;20032;-82
2023/01/20 06:52:24;;;;;;;52.83;22.60;;;2.00;99.90;;;;;;5046954;28;20518;-82
2023/01/20 06:54:50;;;;;;;58.57;24.33;;;2.00;99.90;;;;;;5073741;28;20016;-82
2023/01/20 06:57:16;;;;;;;52.37;24.00;;;2.00;99.90;;;;;;5020393;28;20266;-82
2023/01/20 06:59:41;;;;;;;49.77;23.13;;;2.00;99.90;;;;;;5033691;28;20057;-82
2023/01/20 07:02:10;;;;;;;50.57;22.67;;;1.90;99.90;;;;;;5017123;28;20040;-81
2023/01/20 07:04:36;;;;;;;54.87;25.37;;;1.90;99.90;;;;;;5034594;28;20021;-82
2023/01/20 07:07:01;;;;;;;52.20;23.10;;;2.00;99.90;;;;;;5034615;28;20041;-82
2023/01/20 07:09:27;;;;;;;62.00;25.53;;;2.00;99.90;;;;;;5036463;28;20482;-82
2023/01/20 07:11:53;;;;;;;52.87;23.60;;;2.00;99.90;;;;;;5038298;28;20026;-80
2023/01/20 07:14:19;;;;;;;55.27;23.67;;;2.10;99.90;;;;;;5041798;28;20025;-81
2023/01/20 07:16:45;;;;;;;57.77;26.67;;;2.00;99.90;;;;;;5043018;28;20123;-81
2023/01/20 07:19:11;;;;;;;58.53;25.63;;;2.00;99.90;;;;;;5040611;28;20037;-82
2023/01/20 07:21:37;;;;;;;56.10;26.03;;;1.90;99.90;;;;;;5028254;28;20032;-81
2023/01/20 07:24:03;;;;;;;55.27;23.70;;;1.90;99.90;;;;;;5043993;28;20354;-82
2023/01/20 07:26:29;;;;;;;60.17;26.63;;;1.90;99.90;;;;;;5041109;28;20041;-81
2023/01/20 07:28:57;;;;;;;59.53;25.83;;;1.90;99.90;;;;;;5047998;28;20526;-81
2023/01/20 07:31:25;;;;;;;60.87;25.43;;;1.90;99.90;;;;;;5043289;28;20029;-82
2023/01/20 07:33:53;;;;;;;53.17;23.73;;;2.00;99.90;;;;;;5025541;28;20034;-82
2023/01/20 07:36:19;;;;;;;57.17;24.60;;;1.90;99.90;;;;;;5044508;28;20458;-82
2023/01/20 07:38:49;;;;;;;58.13;26.27;;;2.00;99.90;;;;;;5046611;28;20036;-82
2023/01/20 07:41:18;;;;;;;59.67;24.93;;;2.00;99.90;;;;;;5041606;28;20113;-81
2023/01/20 07:43:45;;;;;;;55.73;25.60;;;2.00;99.90;;;;;;5028596;28;20055;-82
2023/01/20 07:46:12;;;;;;;58.57;26.37;;;2.00;99.90;;;;;;5036656;28;20035;-82
2023/01/20 07:48:37;;;;;;;61.87;27.30;;;2.00;99.90;;;;;;5046343;28;20084;-82
2023/01/20 07:51:06;;;;;;;64.67;27.60;;;2.00;99.90;;;;;;5045747;28;20100;-82
2023/01/20 07:53:38;;;;;;;56.53;24.93;;;2.10;99.90;;;;;;5043402;28;20025;-82
2023/01/20 07:56:07;;;;;;;56.37;26.10;;;2.10;99.90;;;;;;5028818;28;20113;-82
2023/01/20 07:58:33;;;;;;;57.63;24.67;;;2.10;99.90;;;;;;5044365;28;20026;-82
2023/01/20 08:01:10;;;;;;;53.53;24.70;;;2.10;99.90;;;;;;5028382;28;20032;-82
2023/01/20 08:03:36;;;;;;;58.40;25.90;;;2.10;99.90;;;;;;5050857;28;20362;-83
2023/01/20 08:06:06;;;;;;;59.03;25.23;;;2.20;99.90;;;;;;5037235;28;20028;-83
2023/01/20 08:08:33;;;;;;;57.77;24.93;;;2.20;99.90;;;;;;5037054;28;20488;-82
2023/01/20 08:11:00;;;;;;;58.60;25.10;;;2.20;99.90;;;;;;5053873;28;20527;-83
2023/01/20 08:13:27;;;;;;;65.30;25.83;;;2.20;99.90;;;;;;5053786;28;20021;-82
2023/01/20 08:15:52;;;;;;;55.20;25.17;;;2.20;99.90;;;;;;5037427;28;20021;-83
2023/01/20 08:18:18;;;;;;;54.83;25.40;;;2.20;99.90;;;;;;5036646;28;20469;-82
2023/01/20 08:20:44;;;;;;;58.17;25.73;;;2.20;99.90;;;;;;5036383;28;20087;-84
2023/01/20 08:23:09;;;;;;;64.63;27.87;;;2.20;99.90;;;;;;5054942;28;20493;-83
2023/01/20 08:25:35;;;;;;;60.87;26.80;;;2.20;99.90;;;;;;5052959;28;20029;-82
2023/01/20 08:28:01;;;;;;;62.63;27.80;;;2.20;99.90;;;;;;5027356;28;20025;-83
2023/01/20 08:30:26;;;;;;;64.37;27.10;;;2.20;99.90;;;;;;5043874;28;20131;-83
2023/01/20 08:32:52;;;;;;;57.87;25.97;;;2.20;99.90;;;;;;5024789;28;20032;-83
2023/01/20 08:35:18;;;;;;;55.77;25.93;;;2.20;99.90;;;;;;5016510;28;20123;-81
2023/01/20 08:37:44;;;;;;;55.93;26.03;;;2.20;99.90;;;;;;5037181;28;20112;-79
2023/01/20 08:40:10;;;;;;;60.90;27.70;;;2.20;99.90;;;;;;5049922;28;20043;-79
2023/01/20 08:42:37;;;;;;;62.47;27.83;;;2.20;99.90;;;;;;5045225;28;20033;-82
2023/01/20 08:45:05;;;;;;;67.00;30.70;;;2.20;99.90;;;;;;5037923;28;20112;-79
2023/01/20 08:47:34;;;;;;;58.63;26.37;;;2.20;99.90;;;;;;5032552;28;20112;-80
2023/01/20 08:49:59;;;;;;;58.80;24.77;;;2.20;99.90;;;;;;5032513;28;20025;-80
2023/01/20 08:52:25;;;;;;;58.47;25.90;;;2.20;99.90;;;;;;5024224;28;20034;-79
2023/01/20 08:54:52;;;;;;;57.17;26.60;;;2.20;99.90;;;;;;5032378;28;20109;-80
2023/01/20 08:57:18;;;;;;;66.10;26.90;;;2.30;99.90;;;;;;5032614;28;20021;-80
2023/01/20 08:59:45;;;;;;;64.27;28.03;;;2.30;99.90;;;;;;5032110;28;20131;-79
2023/01/20 09:02:11;;;;;;;59.00;28.30;;;2.30;99.90;;;;;;5033876;28;20056;-81
2023/01/20 09:04:37;;;;;;;63.67;27.53;;;2.30;99.90;;;;;;5032245;28;20037;-82
2023/01/20 09:07:04;;;;;;;65.27;29.30;;;2.30;99.90;;;;;;5043505;28;20037;-82
2023/01/20 09:09:29;;;;;;;63.97;28.40;;;2.30;99.90;;;;;;5036849;28;20029;-80
2023/01/20 09:11:55;;;;;;;60.17;25.93;;;2.30;99.90;;;;;;5015900;28;20033;-83
2023/01/20 09:14:23;;;;;;;61.23;27.43;;;2.30;99.90;;;;;;5032355;28;20018;-80
2023/01/20 09:16:49;;;;;;;61.10;27.97;;;2.40;99.90;;;;;;5033138;28;20097;-80
2023/01/20 09:19:15;;;;;;;61.07;27.30;;;2.30;99.90;;;;;;5049156;28;20033;-81
2023/01/20 09:21:42;;;;;;;59.47;26.37;;;2.20;99.90;;;;;;5043513;28;20025;-80
2023/01/20 09:24:08;;;;;;;49.23;23.90;;;2.30;99.90;;;;;;5035524;28;20466;-81
2023/01/20 09:26:40;;;;;;;60.13;24.70;;;2.30;99.90;;;;;;5038108;28;20025;-80
2023/01/20 09:29:11;;;;;;;51.93;24.00;;;2.40;99.90;;;;;;5030570;28;20351;-81
2023/01/20 09:31:57;;;;;;;55.80;25.03;;;2.40;99.90;;;;;;5031399;28;20037;-81
2023/01/20 09:34:26;;;;;;;53.43;24.57;;;2.50;99.90;;;;;;5031387;28;20410;-80
2023/01/20 09:36:57;;;;;;;53.63;25.43;;;2.50;99.90;;;;;;5031643;28;20049;-80
2023/01/20 09:45:24;;;;;;;56.07;24.43;;;2.50;99.90;;;;;;5032910;28;20045;-81
2023/01/20 09:47:58;;;;;;;59.50;25.50;;;2.50;99.90;;;;;;5031816;28;20643;-80
2023/01/20 09:53:34;;;;;;;56.10;24.70;;;2.60;99.90;;;;;;5032990;28;20036;-81
2023/01/20 09:56:06;;;;;;;53.30;24.00;;;2.50;99.90;;;;;;5044271;28;20032;-81
2023/01/20 09:58:32;;;;;;;52.37;23.40;;;2.50;99.90;;;;;;5041447;28;20075;-81
2023/01/20 10:01:23;;;;;;;52.40;24.40;;;2.60;99.90;;;;;;5051004;28;20535;-78
2023/01/20 10:03:48;;;;;;;52.57;24.87;;;2.60;99.90;;;;;;5050822;28;20025;-78
2023/01/20 10:06:40;;;;;;;53.00;24.00;;;2.60;99.90;;;;;;5050888;28;20040;-78
2023/01/20 10:09:24;;;;;;;52.80;23.20;;;2.60;99.90;;;;;;5049349;28;20041;-78
2023/01/20 10:12:01;;;;;;;47.30;22.90;;;2.60;99.90;;;;;;5046811;28;20014;-81
2023/01/20 10:14:39;;;;;;;48.40;22.63;;;2.60;99.90;;;;;;5032711;28;20449;-78
2023/01/20 10:17:22;;;;;;;48.70;22.07;;;2.70;99.90;;;;;;5031419;28;20021;-78
2023/01/20 10:19:49;;;;;;;49.47;22.37;;;2.60;99.90;;;;;;5044761;28;20033;-78
2023/01/20 10:22:40;;;;;;;48.20;22.13;;;2.70;99.90;;;;;;5050930;28;20286;-80
2023/01/20 10:25:17;;;;;;;47.00;22.27;;;2.70;99.90;;;;;;5052735;28;20053;-78
2023/01/20 10:27:51;;;;;;;51.57;22.73;;;2.70;99.90;;;;;;5051837;28;20083;-77
2023/01/20 10:30:20;;;;;;;54.70;24.13;;;2.80;99.90;;;;;;5051430;28;20017;-78
2023/01/20 10:33:20;;;;;;;46.90;22.03;;;2.80;99.90;;;;;;5051222;28;20017;-78
2023/01/20 10:35:50;;;;;;;48.37;23.20;;;2.80;99.90;;;;;;5050758;28;20022;-78
2023/01/20 10:38:27;;;;;;;51.07;23.10;;;2.80;99.90;;;;;;5050878;28;20067;-78
2023/01/20 10:41:01;;;;;;;45.53;22.43;;;2.80;99.90;;;;;;5050918;28;20033;-78
2023/01/20 10:43:27;;;;;;;53.55;24.20;;;2.80;99.90;;;;;;5052635;28;20115;-78
2023/01/20 10:46:00;;;;;;;44.17;20.97;;;2.90;99.90;;;;;;5047971;28;20152;-78
2023/01/20 10:48:34;;;;;;;52.55;24.02;;;2.90;99.90;;;;;;5037544;28;20501;-77
2023/01/20 10:51:30;;;;;;;50.47;23.98;;;2.90;99.90;;;;;;5041142;28;20033;-77
2023/01/20 10:54:18;;;;;;;47.37;23.27;;;2.90;99.90;;;;;;5050195;28;20025;-78
2023/01/20 10:56:54;;;;;;;47.67;22.80;;;3.00;99.90;;;;;;5050867;28;20409;-77
2023/01/20 10:59:46;;;;;;;51.40;24.77;;;3.00;99.90;;;;;;5052275;28;20037;-77
2023/01/20 11:02:19;;;;;;;47.83;22.47;;;3.00;99.90;;;;;;5052343;28;20021;-77
2023/01/20 11:04:51;;;;;;;39.78;20.65;;;3.00;99.90;;;;;;5051685;28;20388;-77
2023/01/20 11:07:18;;;;;;;40.40;20.53;;;3.10;99.90;;;;;;5045802;28;20017;-77
2023/01/20 11:09:47;;;;;;;48.07;23.27;;;3.10;99.90;;;;;;5017295;28;20029;-77
2023/01/20 11:12:19;;;;;;;42.07;21.33;;;3.10;99.90;;;;;;5030713;28;20477;-77
2023/01/20 11:14:46;;;;;;;41.53;22.40;;;3.10;99.90;;;;;;5033012;28;20029;-78
2023/01/20 11:17:19;;;;;;;42.47;21.77;;;3.10;99.90;;;;;;5036010;28;20029;-77
2023/01/20 11:20:04;;;;;;;41.07;21.63;;;3.20;99.90;;;;;;5033984;28;20486;-77
2023/01/20 11:22:35;;;;;;;39.50;19.30;;;3.20;99.90;;;;;;5035580;28;20029;-78
2023/01/20 11:25:03;;;;;;;37.00;20.33;;;3.20;99.90;;;;;;5034332;28;20030;-78
2023/01/20 11:27:41;;;;;;;38.83;19.47;;;3.30;99.90;;;;;;5034333;28;20454;-77
2023/01/20 11:30:24;;;;;;;37.60;19.87;;;3.30;99.90;;;;;;5043278;28;20083;-78
2023/01/20 11:33:20;;;;;;;41.23;20.53;;;3.30;99.90;;;;;;5034065;28;20022;-77
2023/01/20 11:36:00;;;;;;;37.80;18.60;;;3.40;99.90;;;;;;5034078;28;20280;-77
2023/01/20 11:38:39;;;;;;;37.83;20.07;;;3.40;99.90;;;;;;5035337;28;20068;-77
2023/01/20 11:41:20;;;;;;;36.93;19.00;;;3.40;99.90;;;;;;5034595;28;20033;-78
2023/01/20 11:43:46;;;;;;;33.83;18.50;;;3.40;99.90;;;;;;5034112;28;20080;-78
2023/01/20 11:46:19;;;;;;;37.17;19.10;;;3.40;99.90;;;;;;5035272;28;20068;-77
2023/01/20 11:48:46;;;;;;;35.20;19.43;;;3.40;99.90;;;;;;5034033;28;20036;-78
2023/01/20 11:51:25;;;;;;;34.37;18.90;;;3.50;99.90;;;;;;5034969;28;20029;-77
2023/01/20 11:54:06;;;;;;;34.33;18.23;;;3.50;99.90;;;;;;5033967;28;20374;-77
2023/01/20 11:56:42;;;;;;;34.97;19.63;;;3.50;99.90;;;;;;5033412;28;20017;-78
2023/01/20 11:59:30;;;;;;;35.93;19.40;;;3.60;99.90;;;;;;5033701;28;20040;-77
2023/01/20 12:02:19;;;;;;;35.13;19.17;;;3.60;99.90;;;;;;5035173;28;20088;-77
2023/01/20 12:05:17;;;;;;;31.47;18.80;;;3.60;99.90;;;;;;5047007;28;20029;-77
2023/01/20 12:07:49;;;;;;;34.07;19.13;;;3.50;99.90;;;;;;5042124;28;20045;-77
2023/01/20 12:10:20;;;;;;;31.73;18.57;;;3.50;99.90;;;;;;5053198;28;20021;-79
2023/01/20 12:13:16;;;;;;;30.93;17.10;;;3.50;99.90;;;;;;5051348;28;20029;-78
2023/01/20 12:15:45;;;;;;;35.30;18.47;;;3.50;99.90;;;;;;5051344;28;20031;-78
2023/01/20 12:18:35;;;;;;;34.20;18.97;;;3.60;99.90;;;;;;5051493;28;20112;-78
2023/01/20 12:21:16;;;;;;;32.13;17.73;;;3.60;99.90;;;;;;5051541;28;20036;-78
2023/01/20 12:24:00;;;;;;;31.97;18.07;;;3.60;99.90;;;;;;5052763;28;20477;-78
2023/01/20 12:26:27;;;;;;;27.02;15.90;;;3.60;99.90;;;;;;5051746;28;20428;-78
2023/01/20 12:28:53;;;;;;;31.10;17.73;;;3.60;99.90;;;;;;5053153;28;20021;-77
2023/01/20 12:31:22;;;;;;;27.83;16.23;;;3.50;99.90;;;;;;5053187;28;20029;-78
2023/01/20 12:34:03;;;;;;;31.00;17.37;;;3.60;99.90;;;;;;5052890;28;20033;-78
2023/01/20 12:37:00;;;;;;;27.07;15.93;;;3.60;99.90;;;;;;5052699;28;20075;-78
2023/01/20 12:39:35;;;;;;;26.93;14.90;;;3.60;99.90;;;;;;5052402;28;20037;-78
2023/01/20 12:42:25;;;;;;;28.03;15.77;;;3.70;99.90;;;;;;5054259;28;20082;-77
2023/01/20 12:45:06;;;;;;;25.97;14.93;;;3.70;99.90;;;;;;5053167;28;20495;-77
2023/01/20 12:47:35;;;;;;;28.93;16.17;;;3.70;99.90;;;;;;5052869;28;20040;-78
2023/01/20 12:50:38;;;;;;;27.67;14.87;;;3.70;99.90;;;;;;5052886;28;20033;-78
2023/01/20 12:53:42;;;;;;;24.00;14.57;;;3.70;99.90;;;;;;5054078;28;20051;-78
2023/01/20 12:56:39;;;;;;;25.43;13.80;;;3.70;99.90;;;;;;5052710;28;20021;-77
2023/01/20 12:59:37;;;;;;;26.93;15.63;;;3.80;99.90;;;;;;5052596;28;20036;-79
2023/01/20 13:02:15;;;;;;;25.63;15.03;;;3.80;99.90;;;;;;5052291;28;20036;-78
2023/01/20 13:04:49;;;;;;;25.13;13.93;;;3.80;99.90;;;;;;5053406;28;20055;-78
2023/01/20 13:07:21;;;;;;;25.53;14.60;;;3.80;99.90;;;;;;5052227;28;20021;-78